createdAt,value
2018-03-18T00:00:02.014Z,0.90
2018-03-18T00:02:30.010Z,0.80
2018-03-18T00:04:58.242Z,0.80
2018-03-18T00:07:25.706Z,0.80
2018-03-18T00:09:53.177Z,0.80
2018-03-18T00:12:20.634Z,0.80
2018-03-18T00:14:48.101Z,0.70
2018-03-18T00:17:16.325Z,0.60
2018-03-18T00:19:43.800Z,0.60
2018-03-18T00:22:11.256Z,0.60
2018-03-18T00:24:38.714Z,0.60
2018-03-18T00:27:06.185Z,0.60
2018-03-18T00:29:33.649Z,0.50
2018-03-18T00:32:01.105Z,0.50
2018-03-18T00:34:28.575Z,0.50
2018-03-18T00:36:56.791Z,0.60
2018-03-18T00:39:24.253Z,0.50
2018-03-18T00:41:51.722Z,0.60
2018-03-18T00:44:19.191Z,0.60
2018-03-18T00:46:46.660Z,0.60
2018-03-18T00:49:14.122Z,0.60
2018-03-18T00:51:53.493Z,0.60
2018-03-18T00:54:20.969Z,0.60
2018-03-18T00:56:48.430Z,0.70
2018-03-18T00:59:15.880Z,0.70
2018-03-18T01:01:43.352Z,0.70
2018-03-18T01:04:10.814Z,0.60
2018-03-18T01:06:38.273Z,0.60
2018-03-18T01:09:05.730Z,0.60
2018-03-18T01:11:33.189Z,0.60
2018-03-18T01:14:00.694Z,0.60
2018-03-18T01:16:28.125Z,0.60
2018-03-18T01:18:55.581Z,0.60
2018-03-18T01:21:23.045Z,0.50
2018-03-18T01:23:51.260Z,0.60
2018-03-18T01:26:18.725Z,0.50
2018-03-18T01:28:46.176Z,0.50
2018-03-18T01:31:13.728Z,0.50
2018-03-18T01:33:41.182Z,0.40
2018-03-18T01:36:08.646Z,0.50
2018-03-18T01:38:36.111Z,0.50
2018-03-18T01:41:03.575Z,0.50
2018-03-18T01:43:31.021Z,0.60
2018-03-18T01:45:58.490Z,0.50
2018-03-18T01:48:25.943Z,0.50
2018-03-18T01:50:53.413Z,0.50
2018-03-18T01:53:21.667Z,0.50
2018-03-18T01:55:49.198Z,0.50
2018-03-18T01:58:16.657Z,0.50
2018-03-18T02:00:44.118Z,0.50
2018-03-18T02:03:11.577Z,0.40
2018-03-18T02:05:39.145Z,0.40
2018-03-18T02:08:06.599Z,0.50
2018-03-18T02:10:34.058Z,0.40
2018-03-18T02:13:01.514Z,0.40
2018-03-18T02:15:28.987Z,0.40
2018-03-18T02:17:56.437Z,0.40
2018-03-18T02:20:23.917Z,0.40
2018-03-18T02:22:51.378Z,0.40
2018-03-18T02:25:18.825Z,0.40
2018-03-18T02:27:46.287Z,0.40
2018-03-18T02:30:13.742Z,0.40
2018-03-18T02:32:41.202Z,0.40
2018-03-18T02:35:08.666Z,0.50
2018-03-18T02:37:36.565Z,0.40
2018-03-18T02:40:04.782Z,0.40
2018-03-18T02:42:32.249Z,0.40
2018-03-18T02:44:59.695Z,0.40
2018-03-18T02:47:27.158Z,0.40
2018-03-18T02:49:54.614Z,0.40
2018-03-18T02:52:22.075Z,0.40
2018-03-18T02:54:50.322Z,0.40
2018-03-18T02:57:17.782Z,0.40
2018-03-18T02:59:45.241Z,0.40
2018-03-18T03:02:12.704Z,0.40
2018-03-18T03:04:40.153Z,0.40
2018-03-18T03:07:07.618Z,0.40
2018-03-18T03:09:35.070Z,0.40
2018-03-18T03:12:02.533Z,0.40
2018-03-18T03:14:29.997Z,0.40
2018-03-18T03:16:57.459Z,0.40
2018-03-18T03:19:24.917Z,0.40
2018-03-18T03:21:52.381Z,0.40
2018-03-18T03:24:19.841Z,0.40
2018-03-18T03:26:47.309Z,0.40
2018-03-18T03:29:14.758Z,0.40
2018-03-18T03:31:42.219Z,0.40
2018-03-18T03:34:09.731Z,0.40
2018-03-18T03:36:37.147Z,0.40
2018-03-18T03:39:05.399Z,0.40
2018-03-18T03:41:32.837Z,0.40
2018-03-18T03:44:00.293Z,0.30
2018-03-18T03:46:27.757Z,0.30
2018-03-18T03:48:55.210Z,0.30
2018-03-18T03:51:22.691Z,0.30
2018-03-18T03:53:50.129Z,0.30
2018-03-18T03:56:17.590Z,0.40
2018-03-18T03:58:45.049Z,0.40
2018-03-18T04:01:12.498Z,0.40
2018-03-18T04:03:39.961Z,0.40
2018-03-18T04:06:07.409Z,0.40
2018-03-18T04:08:34.886Z,0.40
2018-03-18T04:11:02.333Z,0.40
2018-03-18T04:13:29.805Z,0.30
2018-03-18T04:15:57.258Z,0.30
2018-03-18T04:18:24.717Z,0.40
2018-03-18T04:20:52.169Z,0.40
2018-03-18T04:23:19.633Z,0.40
2018-03-18T04:25:47.858Z,0.40
2018-03-18T04:28:15.324Z,0.30
2018-03-18T04:30:42.777Z,0.40
2018-03-18T04:33:10.249Z,0.40
2018-03-18T04:35:37.717Z,0.30
2018-03-18T04:38:05.182Z,0.30
2018-03-18T04:40:32.637Z,0.30
2018-03-18T04:43:00.098Z,0.30
2018-03-18T04:45:27.547Z,0.30
2018-03-18T04:47:55.015Z,0.30
2018-03-18T04:50:22.461Z,0.30
2018-03-18T04:52:49.926Z,0.30
2018-03-18T04:55:17.374Z,0.30
2018-03-18T04:57:44.834Z,0.30
2018-03-18T05:00:12.339Z,0.30
2018-03-18T05:02:39.798Z,0.30
2018-03-18T05:05:07.262Z,0.30
2018-03-18T05:07:34.731Z,0.30
2018-03-18T05:10:02.191Z,0.30
2018-03-18T05:12:30.418Z,0.30
2018-03-18T05:14:58.638Z,0.30
2018-03-18T05:17:26.107Z,0.30
2018-03-18T05:19:53.727Z,0.30
2018-03-18T05:22:21.193Z,0.30
2018-03-18T05:24:48.650Z,0.30
2018-03-18T05:27:16.113Z,0.30
2018-03-18T05:29:43.578Z,0.40
2018-03-18T05:32:11.066Z,0.40
2018-03-18T05:34:38.517Z,0.40
2018-03-18T05:37:05.970Z,0.40
2018-03-18T05:39:33.437Z,0.30
2018-03-18T05:42:00.886Z,0.30
2018-03-18T05:44:28.349Z,0.30
2018-03-18T05:46:55.805Z,0.20
2018-03-18T05:49:23.603Z,0.20
2018-03-18T05:51:51.047Z,0.20
2018-03-18T05:54:19.277Z,0.20
2018-03-18T05:56:46.745Z,0.20
2018-03-18T05:59:14.197Z,0.30
2018-03-18T06:01:41.655Z,0.30
2018-03-18T06:04:09.118Z,0.30
2018-03-18T06:06:36.573Z,0.30
2018-03-18T06:09:04.036Z,0.20
2018-03-18T06:11:31.490Z,0.20
2018-03-18T06:13:58.964Z,0.20
2018-03-18T06:16:27.181Z,0.30
2018-03-18T06:18:54.726Z,0.30
2018-03-18T06:21:22.179Z,0.30
2018-03-18T06:23:49.642Z,0.40
2018-03-18T06:26:17.109Z,0.40
2018-03-18T06:28:44.573Z,0.40
2018-03-18T06:31:12.037Z,0.40
2018-03-18T06:33:39.504Z,0.40
2018-03-18T06:36:06.966Z,0.50
2018-03-18T06:38:34.433Z,0.50
2018-03-18T06:41:01.893Z,0.50
2018-03-18T06:43:29.359Z,0.50
2018-03-18T06:45:57.573Z,0.50
2018-03-18T06:48:25.047Z,0.50
2018-03-18T06:50:52.554Z,0.50
2018-03-18T06:53:20.794Z,0.50
2018-03-18T06:55:48.249Z,0.50
2018-03-18T06:58:15.718Z,0.50
2018-03-18T07:00:43.171Z,0.60
2018-03-18T07:03:10.637Z,0.60
2018-03-18T07:05:38.116Z,0.60
2018-03-18T07:08:06.350Z,0.60
2018-03-18T07:10:33.798Z,0.60
2018-03-18T07:13:01.279Z,0.70
2018-03-18T07:15:28.766Z,0.60
2018-03-18T07:17:56.982Z,0.60
2018-03-18T07:20:24.443Z,0.50
2018-03-18T07:22:51.900Z,0.60
2018-03-18T07:25:19.466Z,0.60
2018-03-18T07:27:46.829Z,0.60
2018-03-18T07:30:14.316Z,0.60
2018-03-18T07:32:42.540Z,0.70
2018-03-18T07:35:10.000Z,0.70
2018-03-18T07:37:37.461Z,0.70
2018-03-18T07:40:04.959Z,0.70
2018-03-18T07:42:33.194Z,0.70
2018-03-18T07:45:00.657Z,0.70
2018-03-18T07:47:28.131Z,0.70
2018-03-18T07:49:55.601Z,0.70
2018-03-18T07:52:23.832Z,0.70
2018-03-18T07:54:51.300Z,0.80
2018-03-18T07:57:18.761Z,0.80
2018-03-18T07:59:46.235Z,0.80
2018-03-18T08:02:13.686Z,0.70
2018-03-18T08:04:41.146Z,0.70
2018-03-18T08:07:08.601Z,0.70
2018-03-18T08:09:36.078Z,0.60
2018-03-18T08:12:04.298Z,0.60
2018-03-18T08:14:31.770Z,0.60
2018-03-18T08:16:59.216Z,0.70
2018-03-18T08:19:26.695Z,0.70
2018-03-18T08:21:54.146Z,0.70
2018-03-18T08:24:21.610Z,0.70
2018-03-18T08:26:49.068Z,0.70
2018-03-18T08:29:16.550Z,0.70
2018-03-18T08:31:44.761Z,0.80
2018-03-18T08:34:12.252Z,0.80
2018-03-18T08:36:39.673Z,0.80
2018-03-18T08:39:07.137Z,0.80
2018-03-18T08:41:34.590Z,0.80
2018-03-18T08:44:02.054Z,0.80
2018-03-18T08:46:29.505Z,0.70
2018-03-18T08:48:56.962Z,0.60
2018-03-18T08:51:24.417Z,0.60
2018-03-18T08:53:51.873Z,0.70
2018-03-18T08:56:19.335Z,0.70
2018-03-18T08:58:46.784Z,0.80
2018-03-18T09:01:14.342Z,0.80
2018-03-18T09:03:41.789Z,0.80
2018-03-18T09:06:09.250Z,0.80
2018-03-18T09:08:36.710Z,0.80
2018-03-18T09:11:04.173Z,0.80
2018-03-18T09:13:31.627Z,0.80
2018-03-18T09:15:59.087Z,0.80
2018-03-18T09:18:26.538Z,0.90
2018-03-18T09:20:53.992Z,1.00
2018-03-18T09:23:21.445Z,1.00
2018-03-18T09:25:48.909Z,1.00
2018-03-18T09:28:16.365Z,0.90
2018-03-18T09:30:43.833Z,0.90
2018-03-18T09:33:11.317Z,1.00
2018-03-18T09:35:38.825Z,1.10
2018-03-18T09:38:06.242Z,1.10
2018-03-18T09:40:33.687Z,1.10
2018-03-18T09:43:01.146Z,1.20
2018-03-18T09:45:28.600Z,1.20
2018-03-18T09:47:56.062Z,1.30
2018-03-18T09:50:23.516Z,1.40
2018-03-18T09:52:50.974Z,1.40
2018-03-18T09:55:18.430Z,1.50
2018-03-18T09:57:45.889Z,1.50
2018-03-18T10:00:13.345Z,1.60
2018-03-18T10:02:40.801Z,1.60
2018-03-18T10:05:08.262Z,1.60
2018-03-18T10:07:36.146Z,1.60
2018-03-18T10:10:04.357Z,1.50
2018-03-18T10:12:31.821Z,1.50
2018-03-18T10:14:59.274Z,1.50
2018-03-18T10:17:26.737Z,1.50
2018-03-18T10:19:54.190Z,1.60
2018-03-18T10:22:21.649Z,1.80
2018-03-18T10:24:49.111Z,1.90
2018-03-18T10:27:16.573Z,1.90
2018-03-18T10:29:44.014Z,1.90
2018-03-18T10:32:11.476Z,2.00
2018-03-18T10:34:38.929Z,1.90
2018-03-18T10:37:06.388Z,1.90
2018-03-18T10:39:33.835Z,1.90
2018-03-18T10:42:01.312Z,1.80
2018-03-18T10:44:28.749Z,1.80
2018-03-18T10:46:56.201Z,1.90
2018-03-18T10:49:23.653Z,1.90
2018-03-18T10:51:51.105Z,1.90
2018-03-18T10:54:18.565Z,2.00
2018-03-18T10:56:46.029Z,2.00
2018-03-18T10:59:13.489Z,2.10
2018-03-18T11:01:46.803Z,2.20
2018-03-18T11:04:17.246Z,2.20
2018-03-18T11:06:44.697Z,2.30
2018-03-18T11:09:12.154Z,2.40
2018-03-18T11:11:39.600Z,2.40
2018-03-18T11:14:07.879Z,2.50
2018-03-18T11:16:35.325Z,2.50
2018-03-18T11:19:02.793Z,2.60
2018-03-18T11:21:30.246Z,2.60
2018-03-18T11:23:57.945Z,2.70
2018-03-18T11:26:26.165Z,2.80
2018-03-18T11:28:53.637Z,2.70
2018-03-18T11:31:21.093Z,2.80
2018-03-18T11:33:48.615Z,2.80
2018-03-18T11:36:16.063Z,2.90
2018-03-18T11:38:43.630Z,3.00
2018-03-18T11:41:11.094Z,3.00
2018-03-18T11:43:38.561Z,3.10
2018-03-18T11:46:06.017Z,3.10
2018-03-18T11:48:33.478Z,3.10
2018-03-18T11:51:00.936Z,3.20
2018-03-18T11:53:28.397Z,3.20
2018-03-18T11:55:55.872Z,3.20
2018-03-18T11:58:23.317Z,3.20
2018-03-18T12:00:50.769Z,3.20
2018-03-18T12:03:18.221Z,3.10
2018-03-18T12:05:46.449Z,3.00
2018-03-18T12:08:25.653Z,3.00
2018-03-18T12:10:53.117Z,3.00
2018-03-18T12:13:21.338Z,3.10
2018-03-18T12:15:48.801Z,3.10
2018-03-18T12:18:16.264Z,3.10
2018-03-18T12:20:43.721Z,3.10
2018-03-18T12:23:11.181Z,3.10
2018-03-18T12:25:38.641Z,3.10
2018-03-18T12:28:06.125Z,3.00
2018-03-18T12:30:33.561Z,3.00
2018-03-18T12:33:01.009Z,2.80
2018-03-18T12:35:28.473Z,2.90
2018-03-18T12:37:55.935Z,2.80
2018-03-18T12:40:32.867Z,2.80
2018-03-18T12:43:12.169Z,2.90
2018-03-18T12:45:40.401Z,2.80
2018-03-18T12:48:07.861Z,2.80
2018-03-18T12:50:35.329Z,2.70
2018-03-18T12:53:02.782Z,2.70
2018-03-18T12:55:30.250Z,2.70
2018-03-18T12:57:57.705Z,2.60
2018-03-18T13:00:25.159Z,2.60
2018-03-18T13:02:52.615Z,2.60
2018-03-18T13:05:20.076Z,2.60
2018-03-18T13:07:47.532Z,2.60
2018-03-18T13:10:14.992Z,2.60
2018-03-18T13:12:42.452Z,2.50
2018-03-18T13:15:09.909Z,2.50
2018-03-18T13:17:38.173Z,2.40
2018-03-18T13:20:05.637Z,2.50
2018-03-18T13:22:33.117Z,2.50
2018-03-18T13:25:01.365Z,2.40
2018-03-18T13:27:28.822Z,2.40
2018-03-18T13:29:56.283Z,2.50
2018-03-18T13:32:23.742Z,2.50
2018-03-18T13:34:51.184Z,2.50
2018-03-18T13:37:18.656Z,2.50
2018-03-18T13:39:46.101Z,2.50
2018-03-18T13:42:13.559Z,2.50
2018-03-18T13:44:41.009Z,2.50
2018-03-18T13:47:08.469Z,2.50
2018-03-18T13:49:35.929Z,2.60
2018-03-18T13:52:03.397Z,2.60
2018-03-18T13:54:30.904Z,2.60
2018-03-18T13:56:58.309Z,2.60
2018-03-18T13:59:25.761Z,2.70
2018-03-18T14:01:53.218Z,2.70
2018-03-18T14:04:20.673Z,2.70
2018-03-18T14:06:48.133Z,2.70
2018-03-18T14:09:15.586Z,2.60
2018-03-18T14:11:43.053Z,2.60
2018-03-18T14:14:10.504Z,2.60
2018-03-18T14:16:37.966Z,2.60
2018-03-18T14:19:05.419Z,2.60
2018-03-18T14:21:32.889Z,2.60
2018-03-18T14:24:01.117Z,2.60
2018-03-18T14:26:28.593Z,2.60
2018-03-18T14:28:56.050Z,2.60
2018-03-18T14:31:23.513Z,2.60
2018-03-18T14:33:50.977Z,2.60
2018-03-18T14:36:18.432Z,2.50
2018-03-18T14:38:45.895Z,2.40
2018-03-18T14:41:13.357Z,2.30
2018-03-18T14:43:41.598Z,2.10
2018-03-18T14:46:09.049Z,2.10
2018-03-18T14:48:36.526Z,2.10
2018-03-18T14:51:03.987Z,2.10
2018-03-18T14:53:31.455Z,2.10
2018-03-18T14:55:58.915Z,2.20
2018-03-18T14:58:27.163Z,2.30
2018-03-18T15:00:54.609Z,2.20
2018-03-18T15:03:22.072Z,2.20
2018-03-18T15:05:49.540Z,2.20
2018-03-18T15:08:16.994Z,2.20
2018-03-18T15:10:44.486Z,2.20
2018-03-18T15:13:12.706Z,2.30
2018-03-18T15:15:40.201Z,2.20
2018-03-18T15:18:07.654Z,2.30
2018-03-18T15:20:35.121Z,2.20
2018-03-18T15:23:03.346Z,2.20
2018-03-18T15:25:30.912Z,2.20
2018-03-18T15:27:58.360Z,2.20
2018-03-18T15:30:25.829Z,2.20
2018-03-18T15:32:53.302Z,2.10
2018-03-18T15:35:20.765Z,2.10
2018-03-18T15:37:48.223Z,2.00
2018-03-18T15:40:15.697Z,2.00
2018-03-18T15:42:43.933Z,2.00
2018-03-18T15:45:11.388Z,2.00
2018-03-18T15:47:38.853Z,2.00
2018-03-18T15:50:07.069Z,1.90
2018-03-18T15:52:35.301Z,1.90
2018-03-18T15:55:02.758Z,1.90
2018-03-18T15:57:30.221Z,1.90
2018-03-18T15:59:57.689Z,1.90
2018-03-18T16:02:25.149Z,1.90
2018-03-18T16:04:52.601Z,1.90
2018-03-18T16:07:20.069Z,1.90
2018-03-18T16:09:48.290Z,1.90
2018-03-18T16:12:15.753Z,1.90
2018-03-18T16:14:43.229Z,1.90
2018-03-18T16:17:10.695Z,1.80
2018-03-18T16:19:38.421Z,1.70
2018-03-18T16:22:05.877Z,1.80
2018-03-18T16:24:33.325Z,1.70
2018-03-18T16:27:00.885Z,1.70
2018-03-18T16:29:40.263Z,1.70
2018-03-18T16:32:07.723Z,1.70
2018-03-18T16:34:35.178Z,1.70
2018-03-18T16:37:02.633Z,1.70
2018-03-18T16:39:30.097Z,1.70
2018-03-18T16:41:57.550Z,1.70
2018-03-18T16:44:25.015Z,1.70
2018-03-18T16:46:52.461Z,1.70
2018-03-18T16:49:19.941Z,1.70
2018-03-18T16:51:48.162Z,1.60
2018-03-18T16:54:15.622Z,1.60
2018-03-18T16:56:43.083Z,1.60
2018-03-18T16:59:10.550Z,1.60
2018-03-18T17:01:38.001Z,1.50
2018-03-18T17:04:05.454Z,1.50
2018-03-18T17:06:32.913Z,1.60
2018-03-18T17:09:00.389Z,1.50
2018-03-18T17:11:27.845Z,1.60
2018-03-18T17:13:55.309Z,1.50
2018-03-18T17:16:22.760Z,1.50
2018-03-18T17:18:50.237Z,1.50
2018-03-18T17:21:18.457Z,1.50
2018-03-18T17:23:45.917Z,1.50
2018-03-18T17:26:13.374Z,1.60
2018-03-18T17:28:40.837Z,1.50
2018-03-18T17:31:08.405Z,1.40
2018-03-18T17:33:35.885Z,1.40
2018-03-18T17:36:03.332Z,1.40
2018-03-18T17:38:30.800Z,1.30
2018-03-18T17:40:58.261Z,1.20
2018-03-18T17:43:26.478Z,1.20
2018-03-18T17:46:05.765Z,1.20
2018-03-18T17:48:45.161Z,1.20
2018-03-18T17:51:24.565Z,1.20
2018-03-18T17:54:03.843Z,1.30
2018-03-18T17:56:38.429Z,1.20
2018-03-18T17:59:05.897Z,1.20
2018-03-18T18:01:33.349Z,1.20
2018-03-18T18:04:00.825Z,1.10
2018-03-18T18:06:28.269Z,1.20
2018-03-18T18:08:55.738Z,1.10
2018-03-18T18:11:23.193Z,1.10
2018-03-18T18:13:50.646Z,1.10
2018-03-18T18:16:18.109Z,1.00
2018-03-18T18:18:45.561Z,0.90
2018-03-18T18:21:13.794Z,1.00
2018-03-18T18:23:42.023Z,1.00
2018-03-18T18:26:09.484Z,1.00
2018-03-18T18:28:36.934Z,1.00
2018-03-18T18:31:04.465Z,1.00
2018-03-18T18:33:31.904Z,1.00
2018-03-18T18:35:59.367Z,1.00
2018-03-18T18:38:26.830Z,1.00
2018-03-18T18:40:54.301Z,0.90
2018-03-18T18:43:21.776Z,0.90
2018-03-18T18:45:49.221Z,0.90
2018-03-18T18:48:16.669Z,0.90
2018-03-18T18:50:44.138Z,0.90
2018-03-18T18:53:11.675Z,0.90
2018-03-18T18:55:39.141Z,0.90
2018-03-18T18:58:06.601Z,0.90
2018-03-18T19:00:34.097Z,0.90
2018-03-18T19:03:01.594Z,0.90
2018-03-18T19:05:29.009Z,0.90
2018-03-18T19:07:56.462Z,0.90
2018-03-18T19:10:23.916Z,0.80
2018-03-18T19:12:51.388Z,0.90
2018-03-18T19:15:18.838Z,0.80
2018-03-18T19:17:46.302Z,0.80
2018-03-18T19:20:13.793Z,0.80
2018-03-18T19:22:41.253Z,0.70
2018-03-18T19:25:08.713Z,0.70
2018-03-18T19:27:36.181Z,0.70
2018-03-18T19:30:03.634Z,0.70
2018-03-18T19:32:31.098Z,0.80
2018-03-18T19:34:59.316Z,0.80
2018-03-18T19:37:27.546Z,0.80
2018-03-18T19:39:55.005Z,0.80
2018-03-18T19:42:22.471Z,0.70
2018-03-18T19:44:49.926Z,0.80
2018-03-18T19:47:17.399Z,0.80
2018-03-18T19:49:44.892Z,0.80
2018-03-18T19:52:13.112Z,0.70
2018-03-18T19:54:40.561Z,0.70
2018-03-18T19:57:08.030Z,0.70
2018-03-18T19:59:35.494Z,0.60
2018-03-18T20:02:02.962Z,0.60
2018-03-18T20:04:30.409Z,0.60
2018-03-18T20:06:57.878Z,0.50
2018-03-18T20:09:25.345Z,0.50
2018-03-18T20:11:52.801Z,0.50
2018-03-18T20:14:20.246Z,0.50
2018-03-18T20:16:47.705Z,0.40
2018-03-18T20:19:15.160Z,0.50
2018-03-18T20:21:42.626Z,0.40
2018-03-18T20:24:10.849Z,0.50
2018-03-18T20:26:38.309Z,0.50
2018-03-18T20:29:05.761Z,0.50
2018-03-18T20:31:33.227Z,0.50
2018-03-18T20:34:00.673Z,0.50
2018-03-18T20:36:28.141Z,0.50
2018-03-18T20:38:55.601Z,0.50
2018-03-18T20:41:23.054Z,0.50
2018-03-18T20:43:50.521Z,0.50
2018-03-18T20:46:17.969Z,0.50
2018-03-18T20:48:45.450Z,0.50
2018-03-18T20:53:46.781Z,0.50
2018-03-18T20:56:14.234Z,0.50
2018-03-18T20:58:41.693Z,0.50
2018-03-18T21:01:09.148Z,0.50
2018-03-18T21:03:36.608Z,0.50
2018-03-18T21:06:04.060Z,0.50
2018-03-18T21:08:31.528Z,0.50
2018-03-18T21:10:58.982Z,0.60
2018-03-18T21:13:26.446Z,0.60
2018-03-18T21:15:53.902Z,0.60
2018-03-18T21:18:21.358Z,0.60
2018-03-18T21:20:48.801Z,0.60
2018-03-18T21:23:16.261Z,0.60
2018-03-18T21:25:43.725Z,0.60
2018-03-18T21:28:11.191Z,0.60
2018-03-18T21:30:38.645Z,0.60
2018-03-18T21:33:06.109Z,0.60
2018-03-18T21:35:33.563Z,0.60
2018-03-18T21:38:01.038Z,0.60
2018-03-18T21:40:28.485Z,0.60
2018-03-18T21:42:55.945Z,0.60
2018-03-18T21:45:23.402Z,0.60
2018-03-18T21:47:50.861Z,0.60
2018-03-18T21:50:18.319Z,0.60
2018-03-18T21:52:45.777Z,0.50
2018-03-18T21:55:13.244Z,0.50
2018-03-18T21:57:40.697Z,0.60
2018-03-18T22:00:08.919Z,0.60
2018-03-18T22:02:36.380Z,0.60
2018-03-18T22:05:03.846Z,0.60
2018-03-18T22:07:31.309Z,0.70
2018-03-18T22:09:58.768Z,0.70
2018-03-18T22:12:26.249Z,0.70
2018-03-18T22:14:53.710Z,0.70
2018-03-18T22:17:21.945Z,0.70
2018-03-18T22:19:49.410Z,0.70
2018-03-18T22:22:16.869Z,0.70
2018-03-18T22:24:44.340Z,0.60
2018-03-18T22:27:11.797Z,0.60
2018-03-18T22:29:39.261Z,0.60
2018-03-18T22:32:06.713Z,0.60
2018-03-18T22:34:34.181Z,0.50
2018-03-18T22:37:01.636Z,0.40
2018-03-18T22:39:29.881Z,0.30
2018-03-18T22:41:57.341Z,0.30
2018-03-18T22:44:24.826Z,0.30
2018-03-18T22:46:53.042Z,0.20
2018-03-18T22:49:20.501Z,0.20
2018-03-18T22:51:47.957Z,0.20
2018-03-18T22:54:15.426Z,0.20
2018-03-18T22:56:42.891Z,0.20
2018-03-18T22:59:10.354Z,0.20
2018-03-18T23:01:37.819Z,0.20
2018-03-18T23:04:05.282Z,0.30
2018-03-18T23:06:32.732Z,0.30
2018-03-18T23:09:00.197Z,0.30
2018-03-18T23:11:27.658Z,0.30
2018-03-18T23:13:55.125Z,0.30
2018-03-18T23:16:23.339Z,0.30
2018-03-18T23:18:50.797Z,0.30
2018-03-18T23:21:18.252Z,0.30
2018-03-18T23:23:45.713Z,0.30
2018-03-18T23:26:13.169Z,0.30
2018-03-18T23:28:40.629Z,0.20
2018-03-18T23:31:08.080Z,0.30
2018-03-18T23:33:35.541Z,0.30
2018-03-18T23:36:03.091Z,0.30
2018-03-18T23:38:30.558Z,0.30
2018-03-18T23:40:58.009Z,0.20
2018-03-18T23:43:25.498Z,0.20
2018-03-18T23:45:52.957Z,0.20
2018-03-18T23:48:20.412Z,0.20
2018-03-18T23:50:48.673Z,0.10
2018-03-18T23:53:16.137Z,0.10
2018-03-18T23:55:43.600Z,0.10
2018-03-18T23:58:11.061Z,0.10
